sensor_id;sensor_type;location;lat;lon;timestamp;P1;durP1;ratioP1;P2;durP2;ratioP2
73672;SDS011;61972;19.480;-99.240;2022-09-20T00:01:05;8.07;;;3.60;;
73672;SDS011;61972;19.480;-99.240;2022-09-20T00:03:32;7.18;;;3.70;;
73672;SDS011;61972;19.480;-99.240;2022-09-20T00:06:00;8.50;;;3.47;;
73672;SDS011;61972;19.480;-99.240;2022-09-20T00:08:27;7.77;;;3.73;;
73672;SDS011;61972;19.480;-99.240;2022-09-20T00:11:00;5.53;;;3.58;;
73672;SDS011;61972;19.480;-99.240;2022-09-20T00:13:28;6.13;;;3.25;;
73672;SDS011;61972;19.480;-99.240;2022-09-20T00:15:55;6.60;;;3.10;;
73672;SDS011;61972;19.480;-99.240;2022-09-20T00:18:21;5.40;;;2.88;;
73672;SDS011;61972;19.480;-99.240;2022-09-20T00:20:48;6.87;;;3.40;;
73672;SDS011;61972;19.480;-99.240;2022-09-20T00:23:15;6.55;;;3.35;;
73672;SDS011;61972;19.480;-99.240;2022-09-20T00:25:42;6.75;;;2.97;;
73672;SDS011;61972;19.480;-99.240;2022-09-20T00:28:08;5.53;;;2.85;;
73672;SDS011;61972;19.480;-99.240;2022-09-20T00:30:35;4.22;;;3.00;;
73672;SDS011;61972;19.480;-99.240;2022-09-20T00:33:02;8.40;;;2.93;;
73672;SDS011;61972;19.480;-99.240;2022-09-20T00:35:28;4.75;;;2.60;;
73672;SDS011;61972;19.480;-99.240;2022-09-20T00:37:55;5.00;;;2.50;;
73672;SDS011;61972;19.480;-99.240;2022-09-20T00:40:23;5.78;;;2.67;;
73672;SDS011;61972;19.480;-99.240;2022-09-20T00:42:51;5.90;;;2.58;;
73672;SDS011;61972;19.480;-99.240;2022-09-20T00:50:33;5.18;;;2.20;;
73672;SDS011;61972;19.480;-99.240;2022-09-20T00:53:15;4.72;;;2.50;;
73672;SDS011;61972;19.480;-99.240;2022-09-20T00:55:55;4.60;;;2.65;;
73672;SDS011;61972;19.480;-99.240;2022-09-20T00:58:27;4.47;;;2.53;;
73672;SDS011;61972;19.480;-99.240;2022-09-20T01:00:55;4.70;;;2.58;;
73672;SDS011;61972;19.480;-99.240;2022-09-20T01:03:24;5.60;;;2.65;;
73672;SDS011;61972;19.480;-99.240;2022-09-20T01:05:55;5.63;;;2.70;;
73672;SDS011;61972;19.480;-99.240;2022-09-20T01:08:31;7.15;;;2.90;;
73672;SDS011;61972;19.480;-99.240;2022-09-20T01:11:07;5.93;;;2.70;;
73672;SDS011;61972;19.480;-99.240;2022-09-20T01:13:39;4.72;;;2.63;;
73672;SDS011;61972;19.480;-99.240;2022-09-20T01:16:05;5.90;;;2.50;;
73672;SDS011;61972;19.480;-99.240;2022-09-20T01:18:36;6.68;;;2.80;;
73672;SDS011;61972;19.480;-99.240;2022-09-20T01:21:04;7.22;;;2.70;;
73672;SDS011;61972;19.480;-99.240;2022-09-20T01:26:36;6.18;;;2.75;;
73672;SDS011;61972;19.480;-99.240;2022-09-20T01:31:37;3.90;;;2.20;;
73672;SDS011;61972;19.480;-99.240;2022-09-20T01:37:05;4.23;;;2.67;;
73672;SDS011;61972;19.480;-99.240;2022-09-20T01:42:35;4.50;;;2.38;;
73672;SDS011;61972;19.480;-99.240;2022-09-20T01:59:17;4.60;;;2.60;;
73672;SDS011;61972;19.480;-99.240;2022-09-20T02:02:29;6.60;;;2.65;;
73672;SDS011;61972;19.480;-99.240;2022-09-20T02:05:07;6.80;;;3.00;;
73672;SDS011;61972;19.480;-99.240;2022-09-20T02:25:17;7.93;;;2.72;;
73672;SDS011;61972;19.480;-99.240;2022-09-20T02:36:29;5.07;;;2.50;;
73672;SDS011;61972;19.480;-99.240;2022-09-20T02:44:45;5.05;;;2.58;;
73672;SDS011;61972;19.480;-99.240;2022-09-20T02:55:49;7.40;;;2.70;;
73672;SDS011;61972;19.480;-99.240;2022-09-20T02:58:22;4.90;;;2.30;;
73672;SDS011;61972;19.480;-99.240;2022-09-20T03:04:07;8.65;;;3.78;;
73672;SDS011;61972;19.480;-99.240;2022-09-20T03:18:28;12.05;;;5.43;;
73672;SDS011;61972;19.480;-99.240;2022-09-20T03:24:15;9.70;;;4.78;;
73672;SDS011;61972;19.480;-99.240;2022-09-20T03:27:16;10.25;;;3.90;;
73672;SDS011;61972;19.480;-99.240;2022-09-20T03:33:13;10.35;;;4.13;;
73672;SDS011;61972;19.480;-99.240;2022-09-20T03:44:26;13.00;;;4.00;;
73672;SDS011;61972;19.480;-99.240;2022-09-20T03:47:05;11.40;;;3.25;;
73672;SDS011;61972;19.480;-99.240;2022-09-20T03:52:53;23.05;;;4.68;;
73672;SDS011;61972;19.480;-99.240;2022-09-20T03:58:14;7.70;;;2.40;;
73672;SDS011;61972;19.480;-99.240;2022-09-20T04:04:07;9.70;;;2.70;;
73672;SDS011;61972;19.480;-99.240;2022-09-20T04:09:42;10.65;;;3.38;;
73672;SDS011;61972;19.480;-99.240;2022-09-20T04:18:15;8.07;;;2.72;;
73672;SDS011;61972;19.480;-99.240;2022-09-20T04:26:55;8.57;;;2.60;;
73672;SDS011;61972;19.480;-99.240;2022-09-20T04:38:06;9.32;;;2.08;;
73672;SDS011;61972;19.480;-99.240;2022-09-20T04:40:57;8.83;;;1.90;;
73672;SDS011;61972;19.480;-99.240;2022-09-20T04:44:01;7.38;;;1.80;;
73672;SDS011;61972;19.480;-99.240;2022-09-20T04:56:51;5.53;;;1.70;;
73672;SDS011;61972;19.480;-99.240;2022-09-20T05:14:19;5.07;;;1.50;;
73672;SDS011;61972;19.480;-99.240;2022-09-20T05:31:36;4.57;;;1.63;;
73672;SDS011;61972;19.480;-99.240;2022-09-20T05:43:05;2.95;;;1.60;;
73672;SDS011;61972;19.480;-99.240;2022-09-20T05:45:57;3.75;;;1.30;;
73672;SDS011;61972;19.480;-99.240;2022-09-20T05:54:48;3.13;;;1.40;;
73672;SDS011;61972;19.480;-99.240;2022-09-20T06:00:40;4.13;;;1.27;;
73672;SDS011;61972;19.480;-99.240;2022-09-20T06:12:25;4.68;;;1.20;;
73672;SDS011;61972;19.480;-99.240;2022-09-20T06:23:31;2.93;;;1.50;;
73672;SDS011;61972;19.480;-99.240;2022-09-20T06:26:13;3.05;;;1.48;;
73672;SDS011;61972;19.480;-99.240;2022-09-20T06:29:08;3.47;;;1.20;;
73672;SDS011;61972;19.480;-99.240;2022-09-20T06:31:38;2.72;;;1.30;;
73672;SDS011;61972;19.480;-99.240;2022-09-20T06:34:06;2.92;;;1.30;;
73672;SDS011;61972;19.480;-99.240;2022-09-20T06:36:52;2.57;;;1.33;;
73672;SDS011;61972;19.480;-99.240;2022-09-20T06:39:51;2.47;;;1.20;;
73672;SDS011;61972;19.480;-99.240;2022-09-20T06:42:45;2.17;;;1.27;;
73672;SDS011;61972;19.480;-99.240;2022-09-20T06:45:11;2.03;;;1.13;;
73672;SDS011;61972;19.480;-99.240;2022-09-20T06:47:38;2.60;;;1.58;;
73672;SDS011;61972;19.480;-99.240;2022-09-20T06:50:05;2.23;;;1.20;;
73672;SDS011;61972;19.480;-99.240;2022-09-20T06:52:31;3.22;;;1.40;;
73672;SDS011;61972;19.480;-99.240;2022-09-20T06:54:59;2.65;;;1.33;;
73672;SDS011;61972;19.480;-99.240;2022-09-20T06:57:35;2.47;;;1.42;;
73672;SDS011;61972;19.480;-99.240;2022-09-20T07:00:05;3.90;;;1.20;;
73672;SDS011;61972;19.480;-99.240;2022-09-20T07:02:34;3.53;;;1.60;;
73672;SDS011;61972;19.480;-99.240;2022-09-20T07:05:00;2.47;;;1.45;;
73672;SDS011;61972;19.480;-99.240;2022-09-20T07:07:27;3.85;;;1.50;;
73672;SDS011;61972;19.480;-99.240;2022-09-20T07:09:53;2.17;;;1.40;;
73672;SDS011;61972;19.480;-99.240;2022-09-20T07:12:19;3.35;;;1.40;;
73672;SDS011;61972;19.480;-99.240;2022-09-20T07:14:45;2.73;;;1.50;;
73672;SDS011;61972;19.480;-99.240;2022-09-20T07:17:11;3.65;;;1.50;;
73672;SDS011;61972;19.480;-99.240;2022-09-20T07:19:38;2.15;;;1.40;;
73672;SDS011;61972;19.480;-99.240;2022-09-20T07:22:04;2.70;;;1.40;;
73672;SDS011;61972;19.480;-99.240;2022-09-20T07:24:30;2.25;;;1.35;;
73672;SDS011;61972;19.480;-99.240;2022-09-20T07:27:00;2.37;;;1.30;;
73672;SDS011;61972;19.480;-99.240;2022-09-20T07:29:29;3.65;;;1.42;;
73672;SDS011;61972;19.480;-99.240;2022-09-20T07:31:55;2.63;;;1.60;;
73672;SDS011;61972;19.480;-99.240;2022-09-20T07:34:22;2.97;;;1.50;;
73672;SDS011;61972;19.480;-99.240;2022-09-20T07:36:50;1.92;;;1.30;;
73672;SDS011;61972;19.480;-99.240;2022-09-20T07:39:16;2.40;;;1.43;;
73672;SDS011;61972;19.480;-99.240;2022-09-20T07:41:43;2.40;;;1.60;;
73672;SDS011;61972;19.480;-99.240;2022-09-20T07:44:14;2.35;;;1.60;;
73672;SDS011;61972;19.480;-99.240;2022-09-20T07:46:55;3.38;;;1.58;;
73672;SDS011;61972;19.480;-99.240;2022-09-20T07:49:26;3.03;;;1.52;;
73672;SDS011;61972;19.480;-99.240;2022-09-20T07:51:56;2.20;;;1.43;;
73672;SDS011;61972;19.480;-99.240;2022-09-20T07:54:23;2.20;;;1.35;;
73672;SDS011;61972;19.480;-99.240;2022-09-20T07:56:51;3.17;;;1.33;;
73672;SDS011;61972;19.480;-99.240;2022-09-20T07:59:17;2.30;;;1.40;;
73672;SDS011;61972;19.480;-99.240;2022-09-20T08:01:43;2.95;;;1.50;;
73672;SDS011;61972;19.480;-99.240;2022-09-20T08:04:10;2.40;;;1.40;;
73672;SDS011;61972;19.480;-99.240;2022-09-20T08:06:36;2.70;;;1.80;;
73672;SDS011;61972;19.480;-99.240;2022-09-20T08:09:04;2.78;;;1.40;;
73672;SDS011;61972;19.480;-99.240;2022-09-20T08:11:31;2.55;;;1.50;;
73672;SDS011;61972;19.480;-99.240;2022-09-20T08:13:58;2.33;;;1.50;;
73672;SDS011;61972;19.480;-99.240;2022-09-20T08:16:25;2.00;;;1.30;;
73672;SDS011;61972;19.480;-99.240;2022-09-20T08:18:53;1.85;;;1.40;;
73672;SDS011;61972;19.480;-99.240;2022-09-20T08:21:22;2.40;;;1.55;;
73672;SDS011;61972;19.480;-99.240;2022-09-20T08:23:52;2.50;;;1.40;;
73672;SDS011;61972;19.480;-99.240;2022-09-20T08:26:19;2.53;;;1.50;;
73672;SDS011;61972;19.480;-99.240;2022-09-20T08:28:52;3.17;;;1.70;;
73672;SDS011;61972;19.480;-99.240;2022-09-20T08:31:20;2.80;;;1.65;;
73672;SDS011;61972;19.480;-99.240;2022-09-20T08:33:49;4.93;;;1.90;;
73672;SDS011;61972;19.480;-99.240;2022-09-20T08:36:17;3.50;;;2.10;;
73672;SDS011;61972;19.480;-99.240;2022-09-20T08:38:45;5.93;;;1.92;;
73672;SDS011;61972;19.480;-99.240;2022-09-20T08:41:25;3.43;;;1.90;;
73672;SDS011;61972;19.480;-99.240;2022-09-20T08:44:06;3.63;;;2.00;;
73672;SDS011;61972;19.480;-99.240;2022-09-20T08:46:41;4.18;;;1.98;;
73672;SDS011;61972;19.480;-99.240;2022-09-20T08:49:14;2.85;;;1.80;;
73672;SDS011;61972;19.480;-99.240;2022-09-20T08:51:46;3.40;;;1.90;;
73672;SDS011;61972;19.480;-99.240;2022-09-20T08:54:14;4.37;;;2.07;;
73672;SDS011;61972;19.480;-99.240;2022-09-20T08:56:41;3.67;;;2.10;;
73672;SDS011;61972;19.480;-99.240;2022-09-20T08:59:19;2.58;;;1.65;;
73672;SDS011;61972;19.480;-99.240;2022-09-20T09:01:47;3.33;;;2.10;;
73672;SDS011;61972;19.480;-99.240;2022-09-20T09:04:19;3.78;;;2.17;;
73672;SDS011;61972;19.480;-99.240;2022-09-20T09:06:48;4.17;;;2.50;;
73672;SDS011;61972;19.480;-99.240;2022-09-20T09:09:22;4.15;;;2.40;;
73672;SDS011;61972;19.480;-99.240;2022-09-20T09:11:52;3.72;;;2.10;;
73672;SDS011;61972;19.480;-99.240;2022-09-20T09:14:24;4.97;;;2.40;;
73672;SDS011;61972;19.480;-99.240;2022-09-20T09:17:23;4.45;;;2.10;;
73672;SDS011;61972;19.480;-99.240;2022-09-20T09:22:46;4.40;;;2.13;;
73672;SDS011;61972;19.480;-99.240;2022-09-20T09:27:52;3.55;;;2.40;;
73672;SDS011;61972;19.480;-99.240;2022-09-20T09:30:24;5.15;;;2.05;;
73672;SDS011;61972;19.480;-99.240;2022-09-20T09:33:42;4.67;;;2.40;;
73672;SDS011;61972;19.480;-99.240;2022-09-20T09:35:54;3.40;;;1.92;;
73672;SDS011;61972;19.480;-99.240;2022-09-20T09:38:30;2.90;;;1.90;;
73672;SDS011;61972;19.480;-99.240;2022-09-20T09:40:58;3.97;;;2.30;;
73672;SDS011;61972;19.480;-99.240;2022-09-20T09:43:27;3.25;;;1.98;;
73672;SDS011;61972;19.480;-99.240;2022-09-20T09:46:16;4.03;;;2.20;;
73672;SDS011;61972;19.480;-99.240;2022-09-20T09:48:45;3.17;;;2.20;;
73672;SDS011;61972;19.480;-99.240;2022-09-20T09:51:15;3.70;;;2.20;;
73672;SDS011;61972;19.480;-99.240;2022-09-20T09:53:44;3.30;;;2.08;;
73672;SDS011;61972;19.480;-99.240;2022-09-20T09:56:28;3.67;;;2.40;;
73672;SDS011;61972;19.480;-99.240;2022-09-20T09:59:20;3.90;;;1.80;;
73672;SDS011;61972;19.480;-99.240;2022-09-20T10:04:51;2.88;;;1.90;;
73672;SDS011;61972;19.480;-99.240;2022-09-20T10:07:37;3.83;;;2.30;;
73672;SDS011;61972;19.480;-99.240;2022-09-20T10:37:52;5.78;;;2.45;;
73672;SDS011;61972;19.480;-99.240;2022-09-20T10:47:16;3.72;;;2.20;;
73672;SDS011;61972;19.480;-99.240;2022-09-20T10:49:55;3.13;;;1.80;;
73672;SDS011;61972;19.480;-99.240;2022-09-20T10:55:02;4.07;;;2.20;;
73672;SDS011;61972;19.480;-99.240;2022-09-20T11:00:30;3.25;;;1.90;;
73672;SDS011;61972;19.480;-99.240;2022-09-20T11:08:46;3.10;;;1.97;;
73672;SDS011;61972;19.480;-99.240;2022-09-20T11:17:24;2.72;;;1.77;;
73672;SDS011;61972;19.480;-99.240;2022-09-20T11:19:57;3.38;;;1.92;;
73672;SDS011;61972;19.480;-99.240;2022-09-20T11:22:41;3.37;;;2.00;;
73672;SDS011;61972;19.480;-99.240;2022-09-20T11:25:13;2.85;;;1.80;;
73672;SDS011;61972;19.480;-99.240;2022-09-20T11:37:48;5.35;;;2.00;;
73672;SDS011;61972;19.480;-99.240;2022-09-20T11:40:44;4.38;;;2.00;;
73672;SDS011;61972;19.480;-99.240;2022-09-20T11:43:19;3.75;;;2.00;;
73672;SDS011;61972;19.480;-99.240;2022-09-20T11:45:51;3.60;;;2.05;;
73672;SDS011;61972;19.480;-99.240;2022-09-20T11:48:25;3.30;;;2.00;;
73672;SDS011;61972;19.480;-99.240;2022-09-20T11:53:54;2.88;;;1.80;;
73672;SDS011;61972;19.480;-99.240;2022-09-20T11:56:24;5.50;;;1.90;;
73672;SDS011;61972;19.480;-99.240;2022-09-20T11:59:21;4.13;;;1.65;;
73672;SDS011;61972;19.480;-99.240;2022-09-20T12:01:49;3.10;;;2.07;;
73672;SDS011;61972;19.480;-99.240;2022-09-20T12:04:33;2.65;;;1.80;;
73672;SDS011;61972;19.480;-99.240;2022-09-20T12:09:37;3.88;;;2.20;;
73672;SDS011;61972;19.480;-99.240;2022-09-20T12:14:58;3.47;;;2.03;;
73672;SDS011;61972;19.480;-99.240;2022-09-20T12:28:47;3.43;;;1.87;;
73672;SDS011;61972;19.480;-99.240;2022-09-20T12:39:22;3.05;;;1.67;;
73672;SDS011;61972;19.480;-99.240;2022-09-20T12:47:16;4.22;;;1.98;;
73672;SDS011;61972;19.480;-99.240;2022-09-20T12:57:56;4.35;;;2.05;;
73672;SDS011;61972;19.480;-99.240;2022-09-20T13:00:30;3.05;;;1.90;;
73672;SDS011;61972;19.480;-99.240;2022-09-20T13:05:43;4.63;;;2.00;;
73672;SDS011;61972;19.480;-99.240;2022-09-20T13:11:00;4.22;;;1.98;;
73672;SDS011;61972;19.480;-99.240;2022-09-20T13:13:42;3.80;;;2.00;;
73672;SDS011;61972;19.480;-99.240;2022-09-20T13:16:31;3.92;;;2.40;;
73672;SDS011;61972;19.480;-99.240;2022-09-20T13:22:00;3.80;;;2.00;;
73672;SDS011;61972;19.480;-99.240;2022-09-20T13:24:30;4.60;;;2.38;;
73672;SDS011;61972;19.480;-99.240;2022-09-20T13:27:04;4.30;;;2.30;;
73672;SDS011;61972;19.480;-99.240;2022-09-20T13:29:40;2.78;;;1.80;;
73672;SDS011;61972;19.480;-99.240;2022-09-20T13:32:16;3.15;;;2.00;;
73672;SDS011;61972;19.480;-99.240;2022-09-20T13:38:17;3.75;;;1.90;;
73672;SDS011;61972;19.480;-99.240;2022-09-20T13:40:41;3.70;;;2.20;;
73672;SDS011;61972;19.480;-99.240;2022-09-20T13:45:56;3.30;;;2.17;;
73672;SDS011;61972;19.480;-99.240;2022-09-20T13:48:24;3.80;;;2.00;;
73672;SDS011;61972;19.480;-99.240;2022-09-20T13:50:52;3.95;;;2.30;;
73672;SDS011;61972;19.480;-99.240;2022-09-20T13:53:20;6.03;;;2.15;;
73672;SDS011;61972;19.480;-99.240;2022-09-20T13:55:47;3.72;;;2.35;;
73672;SDS011;61972;19.480;-99.240;2022-09-20T14:03:44;6.70;;;2.58;;
73672;SDS011;61972;19.480;-99.240;2022-09-20T14:06:12;3.97;;;2.42;;
73672;SDS011;61972;19.480;-99.240;2022-09-20T14:08:44;4.97;;;2.42;;
73672;SDS011;61972;19.480;-99.240;2022-09-20T14:11:16;5.13;;;2.50;;
73672;SDS011;61972;19.480;-99.240;2022-09-20T14:13:46;5.40;;;2.50;;
73672;SDS011;61972;19.480;-99.240;2022-09-20T14:16:19;4.10;;;2.50;;
73672;SDS011;61972;19.480;-99.240;2022-09-20T14:18:47;5.70;;;2.50;;
73672;SDS011;61972;19.480;-99.240;2022-09-20T14:21:16;5.78;;;2.40;;
73672;SDS011;61972;19.480;-99.240;2022-09-20T14:23:51;4.40;;;2.55;;
73672;SDS011;61972;19.480;-99.240;2022-09-20T14:26:22;4.43;;;2.37;;
73672;SDS011;61972;19.480;-99.240;2022-09-20T14:28:50;4.50;;;2.50;;
73672;SDS011;61972;19.480;-99.240;2022-09-20T14:31:19;5.03;;;2.63;;
73672;SDS011;61972;19.480;-99.240;2022-09-20T14:33:58;4.95;;;2.38;;
73672;SDS011;61972;19.480;-99.240;2022-09-20T14:36:27;5.80;;;2.63;;
73672;SDS011;61972;19.480;-99.240;2022-09-20T14:38:55;4.83;;;2.63;;
73672;SDS011;61972;19.480;-99.240;2022-09-20T14:41:47;4.22;;;2.72;;
73672;SDS011;61972;19.480;-99.240;2022-09-20T14:44:22;4.50;;;2.58;;
73672;SDS011;61972;19.480;-99.240;2022-09-20T14:46:49;4.13;;;2.88;;
73672;SDS011;61972;19.480;-99.240;2022-09-20T14:52:20;6.77;;;3.40;;
73672;SDS011;61972;19.480;-99.240;2022-09-20T14:55:01;6.38;;;4.40;;
73672;SDS011;61972;19.480;-99.240;2022-09-20T14:57:40;8.43;;;4.63;;
73672;SDS011;61972;19.480;-99.240;2022-09-20T15:00:09;8.02;;;4.63;;
73672;SDS011;61972;19.480;-99.240;2022-09-20T15:02:38;7.30;;;4.65;;
73672;SDS011;61972;19.480;-99.240;2022-09-20T15:05:28;9.77;;;4.60;;
73672;SDS011;61972;19.480;-99.240;2022-09-20T15:07:54;9.07;;;4.63;;
73672;SDS011;61972;19.480;-99.240;2022-09-20T15:10:22;7.45;;;4.18;;
73672;SDS011;61972;19.480;-99.240;2022-09-20T15:12:48;8.63;;;4.18;;
73672;SDS011;61972;19.480;-99.240;2022-09-20T15:15:15;7.55;;;4.38;;
73672;SDS011;61972;19.480;-99.240;2022-09-20T15:17:43;7.17;;;4.03;;
73672;SDS011;61972;19.480;-99.240;2022-09-20T15:20:18;8.88;;;3.85;;
73672;SDS011;61972;19.480;-99.240;2022-09-20T15:22:48;8.10;;;4.30;;
73672;SDS011;61972;19.480;-99.240;2022-09-20T15:25:16;6.25;;;3.90;;
73672;SDS011;61972;19.480;-99.240;2022-09-20T15:27:45;5.68;;;3.67;;
73672;SDS011;61972;19.480;-99.240;2022-09-20T15:30:14;6.70;;;3.67;;
73672;SDS011;61972;19.480;-99.240;2022-09-20T15:32:42;7.93;;;3.80;;
73672;SDS011;61972;19.480;-99.240;2022-09-20T15:35:09;5.97;;;3.60;;
73672;SDS011;61972;19.480;-99.240;2022-09-20T15:37:38;6.88;;;3.92;;
73672;SDS011;61972;19.480;-99.240;2022-09-20T15:40:05;7.00;;;4.03;;
73672;SDS011;61972;19.480;-99.240;2022-09-20T15:42:35;6.20;;;3.93;;
73672;SDS011;61972;19.480;-99.240;2022-09-20T15:45:06;6.80;;;4.30;;
73672;SDS011;61972;19.480;-99.240;2022-09-20T15:47:34;8.70;;;4.35;;
73672;SDS011;61972;19.480;-99.240;2022-09-20T15:50:02;6.70;;;3.95;;
73672;SDS011;61972;19.480;-99.240;2022-09-20T15:52:36;5.93;;;3.92;;
73672;SDS011;61972;19.480;-99.240;2022-09-20T15:55:07;8.57;;;4.70;;
73672;SDS011;61972;19.480;-99.240;2022-09-20T15:57:33;10.32;;;4.82;;
73672;SDS011;61972;19.480;-99.240;2022-09-20T16:00:00;10.73;;;5.03;;
73672;SDS011;61972;19.480;-99.240;2022-09-20T16:02:26;8.52;;;4.90;;
73672;SDS011;61972;19.480;-99.240;2022-09-20T16:04:53;8.00;;;4.68;;
73672;SDS011;61972;19.480;-99.240;2022-09-20T16:07:21;6.87;;;4.10;;
73672;SDS011;61972;19.480;-99.240;2022-09-20T16:09:52;7.15;;;4.10;;
73672;SDS011;61972;19.480;-99.240;2022-09-20T16:12:22;6.97;;;4.13;;
73672;SDS011;61972;19.480;-99.240;2022-09-20T16:14:49;7.93;;;4.25;;
73672;SDS011;61972;19.480;-99.240;2022-09-20T16:17:15;9.00;;;4.35;;
73672;SDS011;61972;19.480;-99.240;2022-09-20T16:20:05;9.73;;;4.83;;
73672;SDS011;61972;19.480;-99.240;2022-09-20T16:22:34;10.30;;;5.10;;
73672;SDS011;61972;19.480;-99.240;2022-09-20T16:25:13;8.52;;;4.82;;
73672;SDS011;61972;19.480;-99.240;2022-09-20T16:27:41;9.30;;;5.20;;
73672;SDS011;61972;19.480;-99.240;2022-09-20T16:30:07;12.20;;;5.43;;
73672;SDS011;61972;19.480;-99.240;2022-09-20T16:32:44;11.73;;;6.30;;
73672;SDS011;61972;19.480;-99.240;2022-09-20T16:35:20;9.50;;;5.90;;
73672;SDS011;61972;19.480;-99.240;2022-09-20T16:37:48;11.07;;;5.65;;
73672;SDS011;61972;19.480;-99.240;2022-09-20T16:40:15;11.13;;;5.78;;
73672;SDS011;61972;19.480;-99.240;2022-09-20T16:42:43;11.05;;;5.88;;
73672;SDS011;61972;19.480;-99.240;2022-09-20T16:45:17;11.07;;;6.43;;
73672;SDS011;61972;19.480;-99.240;2022-09-20T16:47:43;12.23;;;6.00;;
73672;SDS011;61972;19.480;-99.240;2022-09-20T16:50:09;11.40;;;6.97;;
73672;SDS011;61972;19.480;-99.240;2022-09-20T16:52:39;10.82;;;6.80;;
73672;SDS011;61972;19.480;-99.240;2022-09-20T16:55:14;13.77;;;6.68;;
73672;SDS011;61972;19.480;-99.240;2022-09-20T16:57:42;13.87;;;6.63;;
73672;SDS011;61972;19.480;-99.240;2022-09-20T17:00:08;11.27;;;7.13;;
73672;SDS011;61972;19.480;-99.240;2022-09-20T17:02:38;10.05;;;6.80;;
73672;SDS011;61972;19.480;-99.240;2022-09-20T17:05:08;11.15;;;6.70;;
73672;SDS011;61972;19.480;-99.240;2022-09-20T17:07:43;12.32;;;6.45;;
73672;SDS011;61972;19.480;-99.240;2022-09-20T17:10:11;12.03;;;6.93;;
73672;SDS011;61972;19.480;-99.240;2022-09-20T17:12:41;13.73;;;7.65;;
73672;SDS011;61972;19.480;-99.240;2022-09-20T17:15:11;14.25;;;6.82;;
73672;SDS011;61972;19.480;-99.240;2022-09-20T17:17:44;11.65;;;7.10;;
73672;SDS011;61972;19.480;-99.240;2022-09-20T17:20:14;11.60;;;6.47;;
73672;SDS011;61972;19.480;-99.240;2022-09-20T17:22:40;9.40;;;6.37;;
73672;SDS011;61972;19.480;-99.240;2022-09-20T17:25:09;11.77;;;6.57;;
73672;SDS011;61972;19.480;-99.240;2022-09-20T17:27:36;12.52;;;6.25;;
73672;SDS011;61972;19.480;-99.240;2022-09-20T17:30:03;9.23;;;5.95;;
73672;SDS011;61972;19.480;-99.240;2022-09-20T17:32:32;13.25;;;6.25;;
73672;SDS011;61972;19.480;-99.240;2022-09-20T17:34:58;11.70;;;6.20;;
73672;SDS011;61972;19.480;-99.240;2022-09-20T17:42:40;9.82;;;5.60;;
73672;SDS011;61972;19.480;-99.240;2022-09-20T17:45:08;11.52;;;6.30;;
73672;SDS011;61972;19.480;-99.240;2022-09-20T17:47:34;9.67;;;6.10;;
73672;SDS011;61972;19.480;-99.240;2022-09-20T17:50:00;12.18;;;5.40;;
73672;SDS011;61972;19.480;-99.240;2022-09-20T17:52:29;8.75;;;5.10;;
73672;SDS011;61972;19.480;-99.240;2022-09-20T17:54:55;7.93;;;4.97;;
73672;SDS011;61972;19.480;-99.240;2022-09-20T17:57:23;12.57;;;5.47;;
73672;SDS011;61972;19.480;-99.240;2022-09-20T17:59:49;9.40;;;5.10;;
73672;SDS011;61972;19.480;-99.240;2022-09-20T18:02:15;9.60;;;5.00;;
73672;SDS011;61972;19.480;-99.240;2022-09-20T18:04:41;8.57;;;4.57;;
73672;SDS011;61972;19.480;-99.240;2022-09-20T18:07:07;9.65;;;4.78;;
73672;SDS011;61972;19.480;-99.240;2022-09-20T18:09:33;9.30;;;4.53;;
73672;SDS011;61972;19.480;-99.240;2022-09-20T18:11:59;8.53;;;4.10;;
73672;SDS011;61972;19.480;-99.240;2022-09-20T18:14:26;7.55;;;4.05;;
73672;SDS011;61972;19.480;-99.240;2022-09-20T18:16:53;8.35;;;3.88;;
73672;SDS011;61972;19.480;-99.240;2022-09-20T18:19:25;9.00;;;3.78;;
73672;SDS011;61972;19.480;-99.240;2022-09-20T18:21:58;9.10;;;3.70;;
73672;SDS011;61972;19.480;-99.240;2022-09-20T18:24:25;8.83;;;3.30;;
73672;SDS011;61972;19.480;-99.240;2022-09-20T18:26:54;9.80;;;3.65;;
73672;SDS011;61972;19.480;-99.240;2022-09-20T18:29:20;7.30;;;3.20;;
73672;SDS011;61972;19.480;-99.240;2022-09-20T18:31:48;9.52;;;3.40;;
73672;SDS011;61972;19.480;-99.240;2022-09-20T18:34:25;10.82;;;3.72;;
73672;SDS011;61972;19.480;-99.240;2022-09-20T18:36:58;8.37;;;3.60;;
73672;SDS011;61972;19.480;-99.240;2022-09-20T18:39:34;9.75;;;4.10;;
73672;SDS011;61972;19.480;-99.240;2022-09-20T18:42:03;9.10;;;4.25;;
73672;SDS011;61972;19.480;-99.240;2022-09-20T18:44:30;20.45;;;4.20;;
73672;SDS011;61972;19.480;-99.240;2022-09-20T18:46:58;13.20;;;4.30;;
73672;SDS011;61972;19.480;-99.240;2022-09-20T18:49:27;9.60;;;3.83;;
73672;SDS011;61972;19.480;-99.240;2022-09-20T18:51:54;42.05;;;5.72;;
73672;SDS011;61972;19.480;-99.240;2022-09-20T18:54:21;31.02;;;5.97;;
73672;SDS011;61972;19.480;-99.240;2022-09-20T18:56:57;16.25;;;3.95;;
73672;SDS011;61972;19.480;-99.240;2022-09-20T18:59:25;10.63;;;3.50;;
73672;SDS011;61972;19.480;-99.240;2022-09-20T19:05:55;10.95;;;2.90;;
73672;SDS011;61972;19.480;-99.240;2022-09-20T19:08:37;11.77;;;2.92;;
73672;SDS011;61972;19.480;-99.240;2022-09-20T19:11:16;10.02;;;3.00;;
73672;SDS011;61972;19.480;-99.240;2022-09-20T19:14:01;8.77;;;2.95;;
73672;SDS011;61972;19.480;-99.240;2022-09-20T19:16:38;17.93;;;3.40;;
73672;SDS011;61972;19.480;-99.240;2022-09-20T19:21:47;12.00;;;3.55;;
73672;SDS011;61972;19.480;-99.240;2022-09-20T19:24:48;9.25;;;3.30;;
73672;SDS011;61972;19.480;-99.240;2022-09-20T19:27:41;13.40;;;3.30;;
73672;SDS011;61972;19.480;-99.240;2022-09-20T19:30:19;9.97;;;2.87;;
73672;SDS011;61972;19.480;-99.240;2022-09-20T19:33:05;7.68;;;2.47;;
73672;SDS011;61972;19.480;-99.240;2022-09-20T19:35:38;9.65;;;2.58;;
73672;SDS011;61972;19.480;-99.240;2022-09-20T19:38:14;5.13;;;2.45;;
73672;SDS011;61972;19.480;-99.240;2022-09-20T19:43:32;5.70;;;2.10;;
73672;SDS011;61972;19.480;-99.240;2022-09-20T19:49:04;5.45;;;2.40;;
73672;SDS011;61972;19.480;-99.240;2022-09-20T19:51:32;3.83;;;2.20;;
73672;SDS011;61972;19.480;-99.240;2022-09-20T19:54:06;4.32;;;2.13;;
73672;SDS011;61972;19.480;-99.240;2022-09-20T19:56:56;5.97;;;2.53;;
73672;SDS011;61972;19.480;-99.240;2022-09-20T19:59:29;6.28;;;2.50;;
73672;SDS011;61972;19.480;-99.240;2022-09-20T20:01:57;5.13;;;2.22;;
73672;SDS011;61972;19.480;-99.240;2022-09-20T20:04:41;4.00;;;2.10;;
73672;SDS011;61972;19.480;-99.240;2022-09-20T20:12:38;6.72;;;2.20;;
73672;SDS011;61972;19.480;-99.240;2022-09-20T20:15:52;4.85;;;2.35;;
73672;SDS011;61972;19.480;-99.240;2022-09-20T20:18:32;5.03;;;2.20;;
73672;SDS011;61972;19.480;-99.240;2022-09-20T20:21:58;4.80;;;2.10;;
73672;SDS011;61972;19.480;-99.240;2022-09-20T20:26:48;6.43;;;2.50;;
73672;SDS011;61972;19.480;-99.240;2022-09-20T20:29:14;3.60;;;2.33;;
73672;SDS011;61972;19.480;-99.240;2022-09-20T20:31:40;4.80;;;2.33;;
73672;SDS011;61972;19.480;-99.240;2022-09-20T20:34:15;4.60;;;2.40;;
73672;SDS011;61972;19.480;-99.240;2022-09-20T20:36:50;6.30;;;2.53;;
73672;SDS011;61972;19.480;-99.240;2022-09-20T20:39:31;4.10;;;2.30;;
73672;SDS011;61972;19.480;-99.240;2022-09-20T20:42:03;4.20;;;2.58;;
73672;SDS011;61972;19.480;-99.240;2022-09-20T20:44:34;5.53;;;2.42;;
73672;SDS011;61972;19.480;-99.240;2022-09-20T20:47:06;4.97;;;2.17;;
73672;SDS011;61972;19.480;-99.240;2022-09-20T20:49:35;7.47;;;2.10;;
73672;SDS011;61972;19.480;-99.240;2022-09-20T20:52:02;5.95;;;2.13;;
73672;SDS011;61972;19.480;-99.240;2022-09-20T20:54:33;4.90;;;2.42;;
73672;SDS011;61972;19.480;-99.240;2022-09-20T20:56:59;3.83;;;2.10;;
73672;SDS011;61972;19.480;-99.240;2022-09-20T20:59:27;4.15;;;2.20;;